sensor_id;sensor_type;location;lat;lon;timestamp;pressure;altitude;pressure_sealevel;temperature;humidity
28167;BME280;15455;53.376;-6.262;2024-01-11T00:00:39;103421.91;;;5.43;100.00
28167;BME280;15455;53.376;-6.262;2024-01-11T00:03:25;103426.16;;;5.43;100.00
28167;BME280;15455;53.376;-6.262;2024-01-11T00:06:11;103430.28;;;5.39;100.00
28167;BME280;15455;53.376;-6.262;2024-01-11T00:08:56;103430.19;;;5.37;100.00
28167;BME280;15455;53.376;-6.262;2024-01-11T00:11:42;103428.56;;;5.39;100.00
28167;BME280;15455;53.376;-6.262;2024-01-11T00:14:27;103428.56;;;5.39;100.00
28167;BME280;15455;53.376;-6.262;2024-01-11T00:17:13;103422.50;;;5.39;100.00
28167;BME280;15455;53.376;-6.262;2024-01-11T00:19:59;103426.75;;;5.38;100.00
28167;BME280;15455;53.376;-6.262;2024-01-11T00:22:45;103433.66;;;5.38;100.00
28167;BME280;15455;53.376;-6.262;2024-01-11T00:25:30;103430.09;;;5.36;100.00
28167;BME280;15455;53.376;-6.262;2024-01-11T00:28:16;103434.44;;;5.37;100.00
28167;BME280;15455;53.376;-6.262;2024-01-11T00:31:01;103440.22;;;5.33;100.00
28167;BME280;15455;53.376;-6.262;2024-01-11T00:33:47;103441.22;;;5.35;100.00
28167;BME280;15455;53.376;-6.262;2024-01-11T00:36:32;103445.41;;;5.33;100.00
28167;BME280;15455;53.376;-6.262;2024-01-11T00:39:18;103450.69;;;5.34;100.00
28167;BME280;15455;53.376;-6.262;2024-01-11T00:42:04;103447.28;;;5.35;100.00
28167;BME280;15455;53.376;-6.262;2024-01-11T00:44:50;103443.03;;;5.36;100.00
28167;BME280;15455;53.376;-6.262;2024-01-11T00:47:35;103448.31;;;5.37;100.00
28167;BME280;15455;53.376;-6.262;2024-01-11T00:50:21;103447.38;;;5.37;100.00
28167;BME280;15455;53.376;-6.262;2024-01-11T00:53:07;103450.91;;;5.37;100.00
28167;BME280;15455;53.376;-6.262;2024-01-11T00:55:53;103443.03;;;5.36;100.00
28167;BME280;15455;53.376;-6.262;2024-01-11T00:58:39;103437.03;;;5.37;100.00
28167;BME280;15455;53.376;-6.262;2024-01-11T01:01:25;103436.25;;;5.38;100.00
28167;BME280;15455;53.376;-6.262;2024-01-11T01:04:10;103438.84;;;5.38;100.00
28167;BME280;15455;53.376;-6.262;2024-01-11T01:06:56;103433.75;;;5.39;100.00
28167;BME280;15455;53.376;-6.262;2024-01-11T01:09:41;103438.94;;;5.39;100.00
28167;BME280;15455;53.376;-6.262;2024-01-11T01:12:27;103442.41;;;5.40;100.00
28167;BME280;15455;53.376;-6.262;2024-01-11T01:15:14;103444.28;;;5.43;100.00
28167;BME280;15455;53.376;-6.262;2024-01-11T01:17:59;103445.31;;;5.45;100.00
28167;BME280;15455;53.376;-6.262;2024-01-11T01:20:46;103436.72;;;5.46;100.00
28167;BME280;15455;53.376;-6.262;2024-01-11T01:23:31;103438.31;;;5.44;100.00
28167;BME280;15455;53.376;-6.262;2024-01-11T01:26:17;103438.22;;;5.42;100.00
28167;BME280;15455;53.376;-6.262;2024-01-11T01:29:03;103437.31;;;5.42;100.00
28167;BME280;15455;53.376;-6.262;2024-01-11T01:31:48;103445.00;;;5.40;100.00
28167;BME280;15455;53.376;-6.262;2024-01-11T01:34:34;103448.41;;;5.39;100.00
28167;BME280;15455;53.376;-6.262;2024-01-11T01:37:20;103444.81;;;5.37;100.00
28167;BME280;15455;53.376;-6.262;2024-01-11T01:40:05;103444.00;;;5.38;100.00
28167;BME280;15455;53.376;-6.262;2024-01-11T01:42:58;103443.13;;;5.37;100.00
28167;BME280;15455;53.376;-6.262;2024-01-11T01:45:43;103440.44;;;5.36;100.00
28167;BME280;15455;53.376;-6.262;2024-01-11T01:48:29;103439.63;;;5.37;100.00
28167;BME280;15455;53.376;-6.262;2024-01-11T01:51:15;103439.72;;;5.38;100.00
28167;BME280;15455;53.376;-6.262;2024-01-11T01:54:02;103443.31;;;5.41;100.00
28167;BME280;15455;53.376;-6.262;2024-01-11T01:56:48;103446.19;;;5.45;100.00
28167;BME280;15455;53.376;-6.262;2024-01-11T01:59:34;103444.56;;;5.47;100.00
28167;BME280;15455;53.376;-6.262;2024-01-11T02:02:21;103461.91;;;5.48;100.00
28167;BME280;15455;53.376;-6.262;2024-01-11T02:05:08;103463.72;;;5.49;100.00
28167;BME280;15455;53.376;-6.262;2024-01-11T02:07:53;103467.28;;;5.51;100.00
28167;BME280;15455;53.376;-6.262;2024-01-11T02:10:40;103463.91;;;5.52;100.00
28167;BME280;15455;53.376;-6.262;2024-01-11T02:13:25;103470.78;;;5.52;100.00
28167;BME280;15455;53.376;-6.262;2024-01-11T02:16:13;103480.31;;;5.53;100.00
28167;BME280;15455;53.376;-6.262;2024-01-11T02:18:58;103483.09;;;5.56;100.00
28167;BME280;15455;53.376;-6.262;2024-01-11T02:21:46;103487.59;;;5.59;100.00
28167;BME280;15455;53.376;-6.262;2024-01-11T02:24:33;103495.34;;;5.59;100.00
28167;BME280;15455;53.376;-6.262;2024-01-11T02:27:19;103494.47;;;5.58;100.00
28167;BME280;15455;53.376;-6.262;2024-01-11T02:30:05;103499.84;;;5.61;100.00
28167;BME280;15455;53.376;-6.262;2024-01-11T02:32:52;103500.94;;;5.65;100.00
28167;BME280;15455;53.376;-6.262;2024-01-11T02:35:39;103507.91;;;5.66;100.00
28167;BME280;15455;53.376;-6.262;2024-01-11T02:38:32;103505.41;;;5.67;100.00
28167;BME280;15455;53.376;-6.262;2024-01-11T02:41:20;103504.50;;;5.67;100.00
28167;BME280;15455;53.376;-6.262;2024-01-11T02:44:06;103507.81;;;5.64;100.00
28167;BME280;15455;53.376;-6.262;2024-01-11T02:46:52;103505.13;;;5.63;100.00
28167;BME280;15455;53.376;-6.262;2024-01-11T02:49:38;103499.75;;;5.60;100.00
28167;BME280;15455;53.376;-6.262;2024-01-11T02:52:23;103502.34;;;5.60;100.00
28167;BME280;15455;53.376;-6.262;2024-01-11T02:55:09;103498.13;;;5.62;100.00
28167;BME280;15455;53.376;-6.262;2024-01-11T02:57:55;103496.75;;;5.67;100.00
28167;BME280;15455;53.376;-6.262;2024-01-11T03:00:41;103487.34;;;5.69;100.00
28167;BME280;15455;53.376;-6.262;2024-01-11T03:03:26;103493.44;;;5.69;100.00
28167;BME280;15455;53.376;-6.262;2024-01-11T03:06:12;103495.34;;;5.72;100.00
28167;BME280;15455;53.376;-6.262;2024-01-11T03:08:59;103499.50;;;5.70;100.00
28167;BME280;15455;53.376;-6.262;2024-01-11T03:11:44;103492.44;;;5.67;100.00
28167;BME280;15455;53.376;-6.262;2024-01-11T03:14:29;103493.34;;;5.68;100.00
28167;BME280;15455;53.376;-6.262;2024-01-11T03:17:15;103501.13;;;5.68;100.00
28167;BME280;15455;53.376;-6.262;2024-01-11T03:20:00;103501.91;;;5.67;100.00
28167;BME280;15455;53.376;-6.262;2024-01-11T03:22:46;103509.69;;;5.67;100.00
28167;BME280;15455;53.376;-6.262;2024-01-11T03:25:32;103509.59;;;5.65;100.00
28167;BME280;15455;53.376;-6.262;2024-01-11T03:28:18;103507.91;;;5.66;100.00
28167;BME280;15455;53.376;-6.262;2024-01-11T03:31:03;103511.50;;;5.68;100.00
28167;BME280;15455;53.376;-6.262;2024-01-11T03:33:49;103513.25;;;5.69;100.00
28167;BME280;15455;53.376;-6.262;2024-01-11T03:36:34;103519.34;;;5.69;100.00
28167;BME280;15455;53.376;-6.262;2024-01-11T03:39:20;103520.94;;;5.67;100.00
28167;BME280;15455;53.376;-6.262;2024-01-11T03:42:05;103526.03;;;5.66;100.00
28167;BME280;15455;53.376;-6.262;2024-01-11T03:44:51;103529.44;;;5.65;100.00
28167;BME280;15455;53.376;-6.262;2024-01-11T03:47:37;103530.22;;;5.64;100.00
28167;BME280;15455;53.376;-6.262;2024-01-11T03:50:23;103530.03;;;5.61;100.00
28167;BME280;15455;53.376;-6.262;2024-01-11T03:53:08;103536.00;;;5.60;100.00
28167;BME280;15455;53.376;-6.262;2024-01-11T03:55:54;103535.91;;;5.58;100.00
28167;BME280;15455;53.376;-6.262;2024-01-11T03:58:39;103537.50;;;5.56;100.00
28167;BME280;15455;53.376;-6.262;2024-01-11T04:01:27;103544.38;;;5.55;100.00
28167;BME280;15455;53.376;-6.262;2024-01-11T04:04:13;103534.72;;;5.53;100.00
28167;BME280;15455;53.376;-6.262;2024-01-11T04:06:59;103533.94;;;5.54;100.00
28167;BME280;15455;53.376;-6.262;2024-01-11T04:09:45;103524.53;;;5.56;100.00
28167;BME280;15455;53.376;-6.262;2024-01-11T04:12:30;103525.47;;;5.56;100.00
28167;BME280;15455;53.376;-6.262;2024-01-11T04:15:16;103524.44;;;5.54;100.00
28167;BME280;15455;53.376;-6.262;2024-01-11T04:18:02;103531.34;;;5.54;100.00
28167;BME280;15455;53.376;-6.262;2024-01-11T04:20:47;103542.41;;;5.51;100.00
28167;BME280;15455;53.376;-6.262;2024-01-11T04:23:33;103538.13;;;5.52;100.00
28167;BME280;15455;53.376;-6.262;2024-01-11T04:26:18;103544.28;;;5.54;100.00
28167;BME280;15455;53.376;-6.262;2024-01-11T04:29:04;103545.28;;;5.56;100.00
28167;BME280;15455;53.376;-6.262;2024-01-11T04:31:49;103530.66;;;5.56;100.00
28167;BME280;15455;53.376;-6.262;2024-01-11T04:34:35;103526.25;;;5.55;100.00
28167;BME280;15455;53.376;-6.262;2024-01-11T04:37:20;103530.56;;;5.55;100.00
28167;BME280;15455;53.376;-6.262;2024-01-11T04:40:06;103534.81;;;5.54;100.00
28167;BME280;15455;53.376;-6.262;2024-01-11T04:42:52;103540.00;;;5.54;100.00
28167;BME280;15455;53.376;-6.262;2024-01-11T04:45:37;103549.47;;;5.54;100.00
28167;BME280;15455;53.376;-6.262;2024-01-11T04:48:23;103552.16;;;5.55;100.00
28167;BME280;15455;53.376;-6.262;2024-01-11T04:51:08;103559.03;;;5.55;100.00
28167;BME280;15455;53.376;-6.262;2024-01-11T04:53:54;103560.72;;;5.54;100.00
28167;BME280;15455;53.376;-6.262;2024-01-11T04:56:40;103562.63;;;5.57;100.00
28167;BME280;15455;53.376;-6.262;2024-01-11T04:59:26;103564.50;;;5.60;100.00
28167;BME280;15455;53.376;-6.262;2024-01-11T05:02:11;103564.50;;;5.60;100.00
28167;BME280;15455;53.376;-6.262;2024-01-11T05:04:57;103563.72;;;5.61;100.00
28167;BME280;15455;53.376;-6.262;2024-01-11T05:07:42;103573.25;;;5.62;100.00
28167;BME280;15455;53.376;-6.262;2024-01-11T05:10:28;103574.28;;;5.64;100.00
28167;BME280;15455;53.376;-6.262;2024-01-11T05:13:13;103575.25;;;5.66;100.00
28167;BME280;15455;53.376;-6.262;2024-01-11T05:15:58;103566.69;;;5.67;100.00
28167;BME280;15455;53.376;-6.262;2024-01-11T05:18:44;103571.00;;;5.66;100.00
28167;BME280;15455;53.376;-6.262;2024-01-11T05:21:30;103576.88;;;5.64;100.00
28167;BME280;15455;53.376;-6.262;2024-01-11T05:24:16;103582.84;;;5.63;100.00
28167;BME280;15455;53.376;-6.262;2024-01-11T05:27:01;103575.66;;;5.59;100.00
28167;BME280;15455;53.376;-6.262;2024-01-11T05:29:46;103573.25;;;5.62;100.00
28167;BME280;15455;53.376;-6.262;2024-01-11T05:32:32;103573.25;;;5.62;100.00
28167;BME280;15455;53.376;-6.262;2024-01-11T05:35:18;103574.97;;;5.61;100.00
28167;BME280;15455;53.376;-6.262;2024-01-11T05:38:03;103575.84;;;5.62;100.00
28167;BME280;15455;53.376;-6.262;2024-01-11T05:40:49;103577.75;;;5.64;100.00
28167;BME280;15455;53.376;-6.262;2024-01-11T05:43:34;103573.69;;;5.68;100.00
28167;BME280;15455;53.376;-6.262;2024-01-11T05:46:21;103579.75;;;5.68;100.00
28167;BME280;15455;53.376;-6.262;2024-01-11T05:49:06;103579.06;;;5.71;100.00
28167;BME280;15455;53.376;-6.262;2024-01-11T05:51:52;103582.63;;;5.73;100.00
28167;BME280;15455;53.376;-6.262;2024-01-11T05:54:38;103584.22;;;5.71;100.00
28167;BME280;15455;53.376;-6.262;2024-01-11T05:57:23;103587.63;;;5.70;100.00
28167;BME280;15455;53.376;-6.262;2024-01-11T06:00:09;103593.50;;;5.67;100.00
28167;BME280;15455;53.376;-6.262;2024-01-11T06:02:55;103588.22;;;5.66;100.00
28167;BME280;15455;53.376;-6.262;2024-01-11T06:05:40;103594.22;;;5.65;100.00
28167;BME280;15455;53.376;-6.262;2024-01-11T06:08:26;103592.22;;;5.61;100.00
28167;BME280;15455;53.376;-6.262;2024-01-11T06:11:12;103592.22;;;5.61;100.00
28167;BME280;15455;53.376;-6.262;2024-01-11T06:13:57;103589.53;;;5.59;100.00
28167;BME280;15455;53.376;-6.262;2024-01-11T06:16:43;103590.63;;;5.63;100.00
28167;BME280;15455;53.376;-6.262;2024-01-11T06:19:28;103595.00;;;5.64;100.00
28167;BME280;15455;53.376;-6.262;2024-01-11T06:22:14;103592.41;;;5.64;100.00
28167;BME280;15455;53.376;-6.262;2024-01-11T06:24:59;103604.56;;;5.65;100.00
28167;BME280;15455;53.376;-6.262;2024-01-11T06:27:46;103606.25;;;5.64;100.00
28167;BME280;15455;53.376;-6.262;2024-01-11T06:30:32;103620.91;;;5.64;100.00
28167;BME280;15455;53.376;-6.262;2024-01-11T06:33:17;103623.59;;;5.65;100.00
28167;BME280;15455;53.376;-6.262;2024-01-11T06:36:07;103622.72;;;5.65;100.00
28167;BME280;15455;53.376;-6.262;2024-01-11T06:38:53;103629.56;;;5.64;100.00
28167;BME280;15455;53.376;-6.262;2024-01-11T06:41:38;103639.06;;;5.64;100.00
28167;BME280;15455;53.376;-6.262;2024-01-11T06:44:24;103642.63;;;5.66;100.00
28167;BME280;15455;53.376;-6.262;2024-01-11T06:47:09;103642.44;;;5.63;100.00
28167;BME280;15455;53.376;-6.262;2024-01-11T06:49:55;103649.22;;;5.61;100.00
28167;BME280;15455;53.376;-6.262;2024-01-11T06:52:41;103651.72;;;5.59;100.00
28167;BME280;15455;53.376;-6.262;2024-01-11T06:55:26;103655.88;;;5.57;100.00
28167;BME280;15455;53.376;-6.262;2024-01-11T06:58:11;103657.50;;;5.55;100.00
28167;BME280;15455;53.376;-6.262;2024-01-11T07:00:57;103666.34;;;5.59;100.00
28167;BME280;15455;53.376;-6.262;2024-01-11T07:03:43;103668.16;;;5.60;100.00
28167;BME280;15455;53.376;-6.262;2024-01-11T07:06:30;103667.25;;;5.59;100.00
28167;BME280;15455;53.376;-6.262;2024-01-11T07:09:15;103672.44;;;5.59;100.00
28167;BME280;15455;53.376;-6.262;2024-01-11T07:12:02;103670.72;;;5.60;100.00
28167;BME280;15455;53.376;-6.262;2024-01-11T07:14:48;103669.84;;;5.59;100.00
28167;BME280;15455;53.376;-6.262;2024-01-11T07:17:33;103664.75;;;5.61;100.00
28167;BME280;15455;53.376;-6.262;2024-01-11T07:20:19;103668.25;;;5.61;100.00
28167;BME280;15455;53.376;-6.262;2024-01-11T07:23:05;103675.91;;;5.60;100.00
28167;BME280;15455;53.376;-6.262;2024-01-11T07:25:50;103673.91;;;5.55;100.00
28167;BME280;15455;53.376;-6.262;2024-01-11T07:28:37;103673.03;;;5.55;100.00
28167;BME280;15455;53.376;-6.262;2024-01-11T07:31:22;103683.59;;;5.58;100.00
28167;BME280;15455;53.376;-6.262;2024-01-11T07:34:08;103683.59;;;5.58;100.00
28167;BME280;15455;53.376;-6.262;2024-01-11T07:36:54;103683.59;;;5.58;100.00
28167;BME280;15455;53.376;-6.262;2024-01-11T07:39:39;103700.84;;;5.57;100.00
28167;BME280;15455;53.376;-6.262;2024-01-11T07:42:25;103700.03;;;5.59;100.00
28167;BME280;15455;53.376;-6.262;2024-01-11T07:45:11;103707.78;;;5.59;100.00
28167;BME280;15455;53.376;-6.262;2024-01-11T07:47:56;103717.28;;;5.58;100.00
28167;BME280;15455;53.376;-6.262;2024-01-11T07:50:42;103716.25;;;5.56;100.00
28167;BME280;15455;53.376;-6.262;2024-01-11T07:53:28;103717.16;;;5.56;100.00
28167;BME280;15455;53.376;-6.262;2024-01-11T07:56:14;103718.97;;;5.57;100.00
28167;BME280;15455;53.376;-6.262;2024-01-11T07:58:59;103724.25;;;5.59;100.00
28167;BME280;15455;53.376;-6.262;2024-01-11T08:01:44;103722.56;;;5.60;100.00
28167;BME280;15455;53.376;-6.262;2024-01-11T08:04:30;103723.44;;;5.60;100.00
28167;BME280;15455;53.376;-6.262;2024-01-11T08:07:16;103730.41;;;5.61;100.00
28167;BME280;15455;53.376;-6.262;2024-01-11T08:10:02;103729.44;;;5.59;100.00
28167;BME280;15455;53.376;-6.262;2024-01-11T08:12:49;103740.69;;;5.60;100.00
28167;BME280;15455;53.376;-6.262;2024-01-11T08:15:35;103741.56;;;5.60;100.00
28167;BME280;15455;53.376;-6.262;2024-01-11T08:18:23;103751.94;;;5.60;100.00
28167;BME280;15455;53.376;-6.262;2024-01-11T08:21:09;103759.81;;;5.62;100.00
28167;BME280;15455;53.376;-6.262;2024-01-11T08:23:56;103766.78;;;5.63;100.00
28167;BME280;15455;53.376;-6.262;2024-01-11T08:26:47;103771.97;;;5.63;100.00
28167;BME280;15455;53.376;-6.262;2024-01-11T08:29:32;103770.28;;;5.63;100.00
28167;BME280;15455;53.376;-6.262;2024-01-11T08:32:18;103773.69;;;5.62;100.00
28167;BME280;15455;53.376;-6.262;2024-01-11T08:35:16;103776.06;;;5.59;100.00
28167;BME280;15455;53.376;-6.262;2024-01-11T08:38:02;103778.44;;;5.56;100.00
28167;BME280;15455;53.376;-6.262;2024-01-11T08:40:48;103773.16;;;5.54;100.00
28167;BME280;15455;53.376;-6.262;2024-01-11T08:43:34;103777.53;;;5.55;100.00
28167;BME280;15455;53.376;-6.262;2024-01-11T08:46:24;103782.72;;;5.55;100.00
28167;BME280;15455;53.376;-6.262;2024-01-11T08:49:10;103789.72;;;5.56;100.00
28167;BME280;15455;53.376;-6.262;2024-01-11T08:51:56;103788.22;;;5.60;100.00
28167;BME280;15455;53.376;-6.262;2024-01-11T08:54:41;103796.09;;;5.62;100.00
28167;BME280;15455;53.376;-6.262;2024-01-11T08:57:26;103802.09;;;5.61;100.00
28167;BME280;15455;53.376;-6.262;2024-01-11T09:00:12;103800.28;;;5.60;100.00
28167;BME280;15455;53.376;-6.262;2024-01-11T09:03:04;103797.59;;;5.58;100.00
28167;BME280;15455;53.376;-6.262;2024-01-11T09:05:50;103802.88;;;5.60;100.00
28167;BME280;15455;53.376;-6.262;2024-01-11T09:08:36;103793.38;;;5.60;100.00
28167;BME280;15455;53.376;-6.262;2024-01-11T09:11:21;103800.47;;;5.63;100.00
28167;BME280;15455;53.376;-6.262;2024-01-11T09:14:08;103798.91;;;5.65;100.00
28167;BME280;15455;53.376;-6.262;2024-01-11T09:16:56;103802.47;;;5.67;100.00
28167;BME280;15455;53.376;-6.262;2024-01-11T09:19:42;103808.75;;;5.70;100.00
28167;BME280;15455;53.376;-6.262;2024-01-11T09:22:27;103804.69;;;5.74;100.00
28167;BME280;15455;53.376;-6.262;2024-01-11T09:25:13;103812.75;;;5.79;100.00
28167;BME280;15455;53.376;-6.262;2024-01-11T09:27:59;103816.47;;;5.82;100.00
28167;BME280;15455;53.376;-6.262;2024-01-11T09:30:45;103820.94;;;5.85;100.00
28167;BME280;15455;53.376;-6.262;2024-01-11T09:33:30;103829.84;;;5.88;100.00
28167;BME280;15455;53.376;-6.262;2024-01-11T09:36:16;103839.41;;;5.89;100.00
28167;BME280;15455;53.376;-6.262;2024-01-11T09:39:02;103837.63;;;5.88;100.00
28167;BME280;15455;53.376;-6.262;2024-01-11T09:41:52;103840.31;;;5.90;100.00
28167;BME280;15455;53.376;-6.262;2024-01-11T09:44:43;103839.53;;;5.91;100.00
28167;BME280;15455;53.376;-6.262;2024-01-11T09:47:29;103835.53;;;5.96;100.00
28167;BME280;15455;53.376;-6.262;2024-01-11T09:50:16;103843.63;;;6.01;100.00
28167;BME280;15455;53.376;-6.262;2024-01-11T09:53:07;103851.63;;;6.04;100.00
28167;BME280;15455;53.376;-6.262;2024-01-11T09:55:53;103849.94;;;6.04;100.00
28167;BME280;15455;53.376;-6.262;2024-01-11T09:58:46;103858.69;;;6.06;100.00
28167;BME280;15455;53.376;-6.262;2024-01-11T10:01:34;103861.41;;;6.08;100.00
28167;BME280;15455;53.376;-6.262;2024-01-11T10:04:20;103863.00;;;6.06;100.00
28167;BME280;15455;53.376;-6.262;2024-01-11T10:07:05;103866.56;;;6.08;100.00
28167;BME280;15455;53.376;-6.262;2024-01-11T10:09:52;103874.34;;;6.08;100.00
28167;BME280;15455;53.376;-6.262;2024-01-11T10:12:38;103875.28;;;6.08;100.00
28167;BME280;15455;53.376;-6.262;2024-01-11T10:15:24;103878.97;;;6.12;100.00
28167;BME280;15455;53.376;-6.262;2024-01-11T10:18:10;103886.06;;;6.15;100.00
28167;BME280;15455;53.376;-6.262;2024-01-11T10:20:57;103888.75;;;6.16;100.00
28167;BME280;15455;53.376;-6.262;2024-01-11T10:23:43;103889.66;;;6.17;100.00
28167;BME280;15455;53.376;-6.262;2024-01-11T10:26:30;103893.13;;;6.17;100.00
28167;BME280;15455;53.376;-6.262;2024-01-11T10:29:15;103892.25;;;6.17;100.00
28167;BME280;15455;53.376;-6.262;2024-01-11T10:32:04;103897.53;;;6.18;100.00
28167;BME280;15455;53.376;-6.262;2024-01-11T10:34:49;103901.13;;;6.20;100.00
28167;BME280;15455;53.376;-6.262;2024-01-11T10:37:36;103902.09;;;6.22;100.00
28167;BME280;15455;53.376;-6.262;2024-01-11T10:40:22;103903.22;;;6.26;100.00
28167;BME280;15455;53.376;-6.262;2024-01-11T10:43:11;103906.13;;;6.31;100.00
28167;BME280;15455;53.376;-6.262;2024-01-11T10:46:01;103901.13;;;6.34;100.00
28167;BME280;15455;53.376;-6.262;2024-01-11T10:48:54;103903.81;;;6.35;100.00
28167;BME280;15455;53.376;-6.262;2024-01-11T10:51:55;103898.84;;;6.38;100.00
28167;BME280;15455;53.376;-6.262;2024-01-11T10:54:43;103892.94;;;6.41;100.00
28167;BME280;15455;53.376;-6.262;2024-01-11T10:57:29;103892.34;;;6.45;100.00
28167;BME280;15455;53.376;-6.262;2024-01-11T11:00:15;103904.66;;;6.48;100.00
28167;BME280;15455;53.376;-6.262;2024-01-11T11:03:02;103906.53;;;6.50;100.00
28167;BME280;15455;53.376;-6.262;2024-01-11T11:05:50;103919.81;;;6.55;100.00
28167;BME280;15455;53.376;-6.262;2024-01-11T11:08:39;103917.31;;;6.56;100.00
28167;BME280;15455;53.376;-6.262;2024-01-11T11:11:25;103916.53;;;6.57;100.00
28167;BME280;15455;53.376;-6.262;2024-01-11T11:14:14;103919.22;;;6.59;100.00
28167;BME280;15455;53.376;-6.262;2024-01-11T11:17:00;103915.00;;;6.61;100.00
28167;BME280;15455;53.376;-6.262;2024-01-11T11:19:46;103921.31;;;6.65;100.00
28167;BME280;15455;53.376;-6.262;2024-01-11T11:22:34;103916.22;;;6.66;100.00
28167;BME280;15455;53.376;-6.262;2024-01-11T11:25:24;103914.72;;;6.70;100.00
28167;BME280;15455;53.376;-6.262;2024-01-11T11:28:12;103921.13;;;6.75;100.00
28167;BME280;15455;53.376;-6.262;2024-01-11T11:30:59;103919.41;;;6.75;100.00
28167;BME280;15455;53.376;-6.262;2024-01-11T11:33:49;103923.72;;;6.75;100.00
28167;BME280;15455;53.376;-6.262;2024-01-11T11:36:35;103923.81;;;6.76;100.00
28167;BME280;15455;53.376;-6.262;2024-01-11T11:39:23;103929.00;;;6.76;100.00
28167;BME280;15455;53.376;-6.262;2024-01-11T11:42:09;103925.50;;;6.76;100.00
28167;BME280;15455;53.376;-6.262;2024-01-11T11:44:55;103931.50;;;6.75;100.00
28167;BME280;15455;53.376;-6.262;2024-01-11T11:47:43;103922.78;;;6.74;100.00
28167;BME280;15455;53.376;-6.262;2024-01-11T11:50:31;103932.28;;;6.74;100.00
28167;BME280;15455;53.376;-6.262;2024-01-11T11:53:18;103926.31;;;6.75;100.00
28167;BME280;15455;53.376;-6.262;2024-01-11T11:56:04;103923.81;;;6.76;100.00
28167;BME280;15455;53.376;-6.262;2024-01-11T11:58:52;103929.88;;;6.77;100.00
28167;BME280;15455;53.376;-6.262;2024-01-11T12:01:40;103930.91;;;6.79;100.00
28167;BME280;15455;53.376;-6.262;2024-01-11T12:04:26;103934.56;;;6.83;100.00
28167;BME280;15455;53.376;-6.262;2024-01-11T12:07:12;103925.22;;;6.85;100.00
28167;BME280;15455;53.376;-6.262;2024-01-11T12:09:58;103930.50;;;6.86;100.00
28167;BME280;15455;53.376;-6.262;2024-01-11T12:12:44;103921.88;;;6.87;100.00
28167;BME280;15455;53.376;-6.262;2024-01-11T12:15:29;103921.97;;;6.89;100.00
28167;BME280;15455;53.376;-6.262;2024-01-11T12:18:15;103923.88;;;6.91;100.00
28167;BME280;15455;53.376;-6.262;2024-01-11T12:21:01;103923.09;;;6.92;100.00
28167;BME280;15455;53.376;-6.262;2024-01-11T12:23:47;103924.81;;;6.92;100.00
28167;BME280;15455;53.376;-6.262;2024-01-11T12:26:34;103915.22;;;6.91;100.00
28167;BME280;15455;53.376;-6.262;2024-01-11T12:29:21;103916.19;;;6.93;100.00
28167;BME280;15455;53.376;-6.262;2024-01-11T12:32:06;103917.91;;;6.92;100.00
28167;BME280;15455;53.376;-6.262;2024-01-11T12:34:57;103901.44;;;6.92;100.00
28167;BME280;15455;53.376;-6.262;2024-01-11T12:37:56;103908.59;;;6.96;100.00
28167;BME280;15455;53.376;-6.262;2024-01-11T12:40:45;103906.00;;;6.96;100.00
28167;BME280;15455;53.376;-6.262;2024-01-11T12:43:31;103906.22;;;6.99;100.00
28167;BME280;15455;53.376;-6.262;2024-01-11T12:46:17;103899.41;;;7.01;100.00
28167;BME280;15455;53.376;-6.262;2024-01-11T12:49:02;103893.50;;;7.04;100.00
28167;BME280;15455;53.376;-6.262;2024-01-11T12:51:50;103890.09;;;7.05;100.00
28167;BME280;15455;53.376;-6.262;2024-01-11T12:54:35;103892.91;;;7.08;100.00
28167;BME280;15455;53.376;-6.262;2024-01-11T12:57:22;103894.69;;;7.09;100.00
28167;BME280;15455;53.376;-6.262;2024-01-11T13:00:12;103882.63;;;7.09;100.00
28167;BME280;15455;53.376;-6.262;2024-01-11T13:02:59;103889.59;;;7.10;100.00
28167;BME280;15455;53.376;-6.262;2024-01-11T13:05:44;103886.97;;;7.10;100.00
28167;BME280;15455;53.376;-6.262;2024-01-11T13:08:31;103882.44;;;7.06;100.00
28167;BME280;15455;53.376;-6.262;2024-01-11T13:11:17;103892.09;;;7.09;100.00
28167;BME280;15455;53.376;-6.262;2024-01-11T13:14:06;103884.28;;;7.09;100.00
28167;BME280;15455;53.376;-6.262;2024-01-11T13:16:57;103880.13;;;7.11;100.00
28167;BME280;15455;53.376;-6.262;2024-01-11T13:19:43;103877.50;;;7.11;100.00
28167;BME280;15455;53.376;-6.262;2024-01-11T13:22:28;103876.81;;;7.13;100.00
28167;BME280;15455;53.376;-6.262;2024-01-11T13:25:14;103879.28;;;7.12;100.00
28167;BME280;15455;53.376;-6.262;2024-01-11T13:27:59;103882.09;;;7.15;100.00
28167;BME280;15455;53.376;-6.262;2024-01-11T13:30:46;103884.06;;;7.19;100.00
28167;BME280;15455;53.376;-6.262;2024-01-11T13:33:32;103885.88;;;7.20;100.00
28167;BME280;15455;53.376;-6.262;2024-01-11T13:36:18;103879.59;;;7.17;100.00
28167;BME280;15455;53.376;-6.262;2024-01-11T13:39:04;103876.69;;;7.12;100.00
28167;BME280;15455;53.376;-6.262;2024-01-11T13:41:49;103871.50;;;7.12;100.00
28167;BME280;15455;53.376;-6.262;2024-01-11T13:44:35;103875.81;;;7.11;100.00
28167;BME280;15455;53.376;-6.262;2024-01-11T13:47:21;103867.91;;;7.10;100.00
28167;BME280;15455;53.376;-6.262;2024-01-11T13:50:07;103867.72;;;7.07;100.00
28167;BME280;15455;53.376;-6.262;2024-01-11T13:52:53;103872.75;;;7.04;100.00
28167;BME280;15455;53.376;-6.262;2024-01-11T13:55:38;103868.25;;;7.01;100.00
28167;BME280;15455;53.376;-6.262;2024-01-11T13:58:25;103878.34;;;6.97;100.00
28167;BME280;15455;53.376;-6.262;2024-01-11T14:01:11;103874.75;;;6.94;100.00
28167;BME280;15455;53.376;-6.262;2024-01-11T14:03:57;103883.34;;;6.93;100.00
28167;BME280;15455;53.376;-6.262;2024-01-11T14:06:43;103879.75;;;6.91;100.00
28167;BME280;15455;53.376;-6.262;2024-01-11T14:09:29;103883.03;;;6.89;100.00
28167;BME280;15455;53.376;-6.262;2024-01-11T14:12:15;103887.16;;;6.85;100.00
28167;BME280;15455;53.376;-6.262;2024-01-11T14:15:05;103888.78;;;6.83;100.00
28167;BME280;15455;53.376;-6.262;2024-01-11T14:17:51;103890.34;;;6.81;100.00